Time;durP1;ratioP1;P1;durP2;ratioP2;P2;SDS_P1;SDS_P2;PMS_P1;PMS_P2;Temp;Humidity;BMP_temperature;BMP_pressure;BME280_temperature;BME280_humidity;BME280_pressure;Samples;Min_cycle;Max_cycle;Signal;HPM_P1;HPM_P2
2023/03/01 00:01:30;;;;;;;25.95;8.00;;;-4.30;94.60;;;;;;5053861;28;20578;-85
2023/03/01 00:03:58;;;;;;;14.43;5.25;;;-4.30;95.20;;;;;;5051731;28;20048;-85
2023/03/01 00:06:26;;;;;;;13.38;5.10;;;-4.30;95.20;;;;;;5048878;28;20048;-85
2023/03/01 00:08:53;;;;;;;29.75;8.48;;;-4.20;95.90;;;;;;5049916;28;20132;-85
2023/03/01 00:11:22;;;;;;;28.17;8.98;;;-4.20;95.90;;;;;;5050115;28;20112;-85
2023/03/01 00:13:52;;;;;;;45.38;13.35;;;-4.20;95.30;;;;;;5049532;28;20044;-85
2023/03/01 00:16:31;;;;;;;53.40;15.27;;;-4.20;95.20;;;;;;5049942;28;20045;-84
2023/03/01 00:18:58;;;;;;;37.53;12.40;;;-4.20;95.50;;;;;;5050739;28;20076;-84
2023/03/01 00:21:26;;;;;;;27.00;8.85;;;-4.10;95.70;;;;;;5052416;28;20810;-85
2023/03/01 00:23:54;;;;;;;23.70;7.38;;;-4.10;95.50;;;;;;5064910;22;20405;-84
2023/03/01 00:26:23;;;;;;;30.77;7.95;;;-4.10;95.50;;;;;;5076606;28;20045;-85
2023/03/01 00:28:50;;;;;;;28.15;8.77;;;-4.10;95.10;;;;;;5055510;28;20044;-84
2023/03/01 00:31:19;;;;;;;21.48;7.60;;;-4.10;95.20;;;;;;5087071;28;20056;-85
2023/03/01 00:33:46;;;;;;;14.32;5.60;;;-4.10;94.90;;;;;;5073695;28;20544;-85
2023/03/01 00:36:15;;;;;;;15.55;5.32;;;-4.10;95.10;;;;;;5054364;28;20048;-85
2023/03/01 00:38:44;;;;;;;14.93;4.72;;;-4.20;95.10;;;;;;5052601;28;20503;-85
2023/03/01 00:41:14;;;;;;;11.55;4.57;;;-4.20;95.10;;;;;;5057107;28;20071;-84
2023/03/01 00:43:42;;;;;;;12.25;4.88;;;-4.20;95.10;;;;;;5052550;28;20118;-84
2023/03/01 00:46:14;;;;;;;18.17;5.55;;;-4.20;95.20;;;;;;5070024;28;20058;-85
2023/03/01 00:48:42;;;;;;;17.05;5.13;;;-4.30;95.40;;;;;;5065710;28;20056;-85
2023/03/01 00:51:11;;;;;;;14.52;5.25;;;-4.30;94.90;;;;;;5075115;28;20400;-84
2023/03/01 00:53:39;;;;;;;13.90;5.25;;;-4.40;95.00;;;;;;5049459;28;20041;-84
2023/03/01 00:56:07;;;;;;;13.68;5.97;;;-4.40;94.70;;;;;;5053175;28;20056;-85
2023/03/01 00:58:34;;;;;;;17.20;4.97;;;-4.40;94.60;;;;;;5042113;28;20142;-85
2023/03/01 01:01:16;;;;;;;18.85;4.72;;;-4.50;94.50;;;;;;5070540;28;20645;-85
2023/03/01 01:03:49;;;;;;;14.75;5.07;;;-4.40;94.30;;;;;;5068319;28;20131;-85
2023/03/01 01:06:23;;;;;;;10.35;4.30;;;-4.50;94.20;;;;;;5056501;28;20053;-84
2023/03/01 01:08:51;;;;;;;14.07;4.93;;;-4.50;94.90;;;;;;5053160;28;20481;-84
2023/03/01 01:11:19;;;;;;;11.98;4.35;;;-4.50;95.10;;;;;;5085864;28;20048;-84
2023/03/01 01:13:47;;;;;;;18.58;5.43;;;-4.50;95.50;;;;;;5059032;28;20044;-84
2023/03/01 01:16:16;;;;;;;13.93;3.95;;;-4.60;95.80;;;;;;5100905;28;20056;-84
2023/03/01 01:18:43;;;;;;;10.57;4.60;;;-4.60;95.70;;;;;;5060865;28;20049;-84
2023/03/01 01:21:13;;;;;;;12.30;4.65;;;-4.60;96.00;;;;;;5066523;28;20049;-84
2023/03/01 01:23:42;;;;;;;13.82;4.72;;;-4.70;95.70;;;;;;5051740;28;20041;-84
2023/03/01 01:26:18;;;;;;;15.55;5.07;;;-4.70;96.00;;;;;;5075734;28;20048;-85
2023/03/01 01:28:46;;;;;;;15.18;4.70;;;-4.80;95.60;;;;;;5061837;28;20053;-85
2023/03/01 01:31:14;;;;;;;11.50;4.57;;;-4.80;95.80;;;;;;5058998;28;20060;-84
2023/03/01 01:33:41;;;;;;;18.52;5.30;;;-4.80;96.50;;;;;;5095322;22;20048;-85
2023/03/01 01:36:09;;;;;;;13.02;3.97;;;-4.80;96.30;;;;;;5094062;28;20444;-85
2023/03/01 01:38:37;;;;;;;16.60;4.32;;;-4.80;96.10;;;;;;5092040;28;20392;-85
2023/03/01 01:41:05;;;;;;;12.15;4.32;;;-4.80;96.50;;;;;;5110806;28;20065;-84
2023/03/01 01:43:38;;;;;;;12.02;4.03;;;-4.90;96.50;;;;;;5089827;28;20052;-84
2023/03/01 01:46:31;;;;;;;13.25;4.63;;;-4.90;96.50;;;;;;5091699;28;20646;-84
2023/03/01 01:49:05;;;;;;;13.75;4.25;;;-4.90;96.50;;;;;;5091041;28;20130;-84
2023/03/01 01:51:38;;;;;;;13.95;3.83;;;-4.90;96.90;;;;;;5107532;28;20162;-84
2023/03/01 01:54:14;;;;;;;20.35;5.13;;;-4.90;96.90;;;;;;5106061;28;20163;-84
2023/03/01 01:56:44;;;;;;;14.07;4.88;;;-4.90;97.20;;;;;;5085697;28;20385;-84
2023/03/01 01:59:12;;;;;;;14.30;5.00;;;-4.90;97.00;;;;;;5107352;28;20052;-84
2023/03/01 02:01:39;;;;;;;13.10;4.38;;;-4.90;96.70;;;;;;5087401;28;20047;-84
2023/03/01 02:04:09;;;;;;;12.05;4.95;;;-4.90;96.90;;;;;;5091878;28;20071;-84
2023/03/01 02:07:15;;;;;;;11.15;5.00;;;-4.90;96.90;;;;;;5083223;28;20047;-84
2023/03/01 02:09:48;;;;;;;12.73;4.18;;;-4.90;96.80;;;;;;5072921;28;20048;-84
2023/03/01 02:12:17;;;;;;;13.13;4.80;;;-4.90;97.00;;;;;;5092145;28;20050;-84
2023/03/01 02:14:44;;;;;;;13.68;4.40;;;-4.90;96.90;;;;;;5110823;28;20047;-84
2023/03/01 02:17:16;;;;;;;11.93;4.97;;;-4.90;96.90;;;;;;5114707;28;20396;-84
2023/03/01 02:20:06;;;;;;;11.40;4.28;;;-4.90;96.90;;;;;;5090994;28;20043;-84
2023/03/01 02:22:35;;;;;;;16.20;4.57;;;-4.90;97.00;;;;;;5091807;28;20098;-84
2023/03/01 02:25:21;;;;;;;11.40;5.00;;;-4.90;97.00;;;;;;5092759;28;20155;-84
2023/03/01 02:27:50;;;;;;;;;;;-4.90;97.10;;;;;;5087213;28;20055;-84
2023/03/01 02:30:19;;;;;;;13.57;4.65;;;-4.90;97.40;;;;;;5091888;28;19935;-85
2023/03/01 02:32:47;;;;;;;10.13;4.63;;;-4.90;97.30;;;;;;5091459;28;20050;-84
2023/03/01 02:35:19;;;;;;;15.63;4.18;;;-4.90;97.10;;;;;;5091639;28;20048;-85
2023/03/01 02:37:47;;;;;;;14.85;4.53;;;-4.90;97.40;;;;;;5110717;28;20040;-84
2023/03/01 02:40:18;;;;;;;12.27;4.70;;;-4.80;97.90;;;;;;5095001;28;20051;-84
2023/03/01 02:42:53;;;;;;;10.90;4.20;;;-4.70;98.30;;;;;;5096509;28;20139;-83
2023/03/01 02:45:20;;;;;;;8.85;4.65;;;-4.70;98.30;;;;;;5085843;28;20044;-83
2023/03/01 02:47:47;;;;;;;14.10;4.53;;;-4.70;98.20;;;;;;5104772;28;20043;-82
2023/03/01 02:50:40;;;;;;;12.90;4.47;;;-4.70;98.20;;;;;;5112992;28;20039;-83
2023/03/01 02:53:13;;;;;;;10.68;4.70;;;-4.70;98.10;;;;;;5089945;28;20056;-83
2023/03/01 02:55:40;;;;;;;8.25;3.78;;;-4.70;98.20;;;;;;5095200;28;20048;-83
2023/03/01 02:58:08;;;;;;;10.95;4.78;;;-4.70;97.80;;;;;;5112575;28;20078;-83
2023/03/01 03:00:45;;;;;;;12.98;4.50;;;-4.70;97.60;;;;;;5108140;27;20506;-83
2023/03/01 03:03:21;;;;;;;20.05;4.07;;;-4.70;97.50;;;;;;5094082;28;20054;-84
2023/03/01 03:05:48;;;;;;;10.75;4.28;;;-4.70;97.70;;;;;;5095498;28;20044;-83
2023/03/01 03:08:23;;;;;;;11.27;4.43;;;-4.70;97.80;;;;;;5094255;28;20059;-83
2023/03/01 03:10:51;;;;;;;13.70;4.70;;;-4.70;97.50;;;;;;5095843;28;20055;-83
2023/03/01 03:13:18;;;;;;;14.07;4.47;;;-4.70;97.40;;;;;;5093204;28;20056;-83
2023/03/01 03:15:45;;;;;;;10.85;4.88;;;-4.70;97.50;;;;;;5100756;28;20118;-83
2023/03/01 03:18:15;;;;;;;12.55;4.10;;;-4.80;97.20;;;;;;5093553;28;20633;-83
2023/03/01 03:20:44;;;;;;;15.50;4.63;;;-4.80;97.10;;;;;;5100062;28;20631;-84
2023/03/01 03:23:11;;;;;;;10.23;4.40;;;-4.80;97.00;;;;;;5094454;28;20053;-84
2023/03/01 03:25:39;;;;;;;12.95;4.63;;;-4.80;96.90;;;;;;5094881;28;20127;-85
2023/03/01 03:28:09;;;;;;;16.75;5.57;;;-4.80;97.40;;;;;;5094163;28;20551;-84
2023/03/01 03:30:39;;;;;;;9.98;4.47;;;-4.80;97.40;;;;;;5093620;28;20060;-84
2023/03/01 03:33:07;;;;;;;16.40;5.30;;;-4.90;97.50;;;;;;5093684;28;20089;-84
2023/03/01 03:35:40;;;;;;;11.95;4.47;;;-4.90;97.40;;;;;;5091650;28;20101;-83
2023/03/01 03:38:15;;;;;;;12.23;4.88;;;-4.90;97.10;;;;;;5094836;28;20047;-83
2023/03/01 03:40:45;;;;;;;13.63;4.75;;;-5.00;97.40;;;;;;5082640;28;20158;-84
2023/03/01 03:43:14;;;;;;;20.58;5.80;;;-5.00;97.30;;;;;;5094756;28;20051;-83
2023/03/01 03:45:43;;;;;;;18.70;5.03;;;-5.00;97.40;;;;;;5113057;28;20442;-83
2023/03/01 03:48:11;;;;;;;18.48;4.47;;;-4.90;97.50;;;;;;5085844;28;20051;-84
2023/03/01 03:50:39;;;;;;;9.75;4.10;;;-4.90;97.60;;;;;;5090400;28;20130;-83
2023/03/01 03:53:09;;;;;;;13.32;4.78;;;-5.00;97.30;;;;;;5094344;28;20040;-83
2023/03/01 03:55:38;;;;;;;12.95;4.13;;;-5.00;97.20;;;;;;5081637;28;20040;-82
2023/03/01 03:58:10;;;;;;;11.00;4.30;;;-5.10;97.10;;;;;;5093792;28;20044;-83
2023/03/01 04:00:42;;;;;;;9.13;3.88;;;-5.10;96.80;;;;;;5109265;28;20050;-83
2023/03/01 04:03:10;;;;;;;16.13;3.83;;;-5.10;97.30;;;;;;5092968;28;20055;-83
2023/03/01 04:05:39;;;;;;;12.25;4.63;;;-5.20;97.40;;;;;;5091731;28;20079;-83
2023/03/01 04:08:07;;;;;;;19.00;4.82;;;-5.20;97.50;;;;;;5093132;28;20048;-83
2023/03/01 04:10:40;;;;;;;10.73;4.10;;;-5.20;97.60;;;;;;5076850;28;20624;-83
2023/03/01 04:13:10;;;;;;;15.32;3.97;;;-5.20;97.40;;;;;;5089218;28;20126;-83
2023/03/01 04:15:37;;;;;;;10.93;3.53;;;-5.20;97.20;;;;;;5093657;27;20054;-83
2023/03/01 04:18:05;;;;;;;11.98;3.55;;;-5.20;97.20;;;;;;5115160;27;20052;-83
2023/03/01 04:20:34;;;;;;;10.00;4.07;;;-5.20;97.40;;;;;;5092549;28;20066;-83
2023/03/01 04:23:13;;;;;;;10.23;3.85;;;-5.10;97.60;;;;;;5093061;28;20047;-83
2023/03/01 04:26:01;;;;;;;10.75;4.15;;;-5.10;98.00;;;;;;5093308;27;20424;-83
2023/03/01 04:28:34;;;;;;;10.60;3.53;;;-5.10;98.10;;;;;;5080327;28;20834;-82
2023/03/01 04:31:12;;;;;;;8.63;3.22;;;-5.00;98.30;;;;;;5093190;28;20043;-84
2023/03/01 04:33:45;;;;;;;8.80;3.53;;;-5.00;98.20;;;;;;5102111;28;20048;-83
2023/03/01 04:36:13;;;;;;;14.57;3.55;;;-4.90;98.00;;;;;;5089902;28;20035;-83
2023/03/01 04:38:40;;;;;;;8.70;4.70;;;-4.90;98.30;;;;;;5080413;28;20549;-84
2023/03/01 04:41:10;;;;;;;8.45;3.45;;;-4.90;98.80;;;;;;5109106;28;20142;-83
2023/03/01 04:43:37;;;;;;;7.40;3.75;;;-4.90;98.70;;;;;;5084925;28;20067;-83
2023/03/01 04:46:08;;;;;;;13.00;3.70;;;-4.90;98.40;;;;;;5122595;27;20833;-83
2023/03/01 04:48:37;;;;;;;12.50;4.47;;;-4.90;98.30;;;;;;5109718;28;20047;-83
2023/03/01 04:51:05;;;;;;;10.25;4.35;;;-4.80;98.40;;;;;;5109473;28;20055;-83
2023/03/01 04:53:32;;;;;;;11.80;3.80;;;-4.80;98.40;;;;;;5096857;28;20859;-83
2023/03/01 04:55:59;;;;;;;12.65;4.50;;;-4.80;98.00;;;;;;5092528;28;20056;-84
2023/03/01 04:58:28;;;;;;;12.30;3.67;;;-4.80;98.00;;;;;;5092708;28;20090;-84
2023/03/01 05:00:55;;;;;;;12.00;4.43;;;-4.80;98.10;;;;;;5091993;28;20047;-83
2023/03/01 05:03:22;;;;;;;9.02;4.35;;;-4.80;98.30;;;;;;5095984;28;20050;-83
2023/03/01 05:05:51;;;;;;;14.27;4.43;;;-4.70;98.20;;;;;;5088980;28;20054;-84
2023/03/01 05:08:18;;;;;;;10.20;4.22;;;-4.70;98.30;;;;;;5108255;28;20421;-82
2023/03/01 05:10:50;;;;;;;13.35;4.53;;;-4.70;98.10;;;;;;5104082;28;20412;-83
2023/03/01 05:13:21;;;;;;;11.07;4.15;;;-4.70;97.70;;;;;;5097022;28;20047;-83
2023/03/01 05:15:59;;;;;;;13.40;4.00;;;-4.70;97.50;;;;;;5088870;28;20047;-82
2023/03/01 05:18:28;;;;;;;12.00;4.65;;;-4.70;97.50;;;;;;5091312;28;20078;-81
2023/03/01 05:21:00;;;;;;;27.08;5.28;;;-4.60;97.80;;;;;;5091172;28;20051;-82
2023/03/01 05:23:27;;;;;;;14.23;5.15;;;-4.60;97.90;;;;;;5110050;28;20108;-81
2023/03/01 05:25:57;;;;;;;21.33;5.57;;;-4.60;98.20;;;;;;5084694;28;20393;-83
2023/03/01 05:28:23;;;;;;;17.92;4.55;;;-4.50;98.60;;;;;;5091194;28;20061;-83
2023/03/01 05:30:51;;;;;;;14.80;4.82;;;-4.50;98.70;;;;;;5091036;28;20044;-83
2023/03/01 05:33:18;;;;;;;9.43;4.00;;;-4.50;98.00;;;;;;5091853;28;20062;-83
2023/03/01 05:35:48;;;;;;;17.75;4.70;;;-4.50;97.70;;;;;;5087693;28;20078;-83
2023/03/01 05:38:16;;;;;;;14.93;4.95;;;-4.50;97.50;;;;;;5110345;28;20411;-84
2023/03/01 05:40:44;;;;;;;13.32;5.47;;;-4.50;97.30;;;;;;5089625;28;20058;-84
2023/03/01 05:43:13;;;;;;;15.90;5.30;;;-4.60;97.10;;;;;;5087342;28;20782;-84
2023/03/01 05:45:40;;;;;;;16.23;5.95;;;-4.60;96.90;;;;;;5093101;28;20043;-84
2023/03/01 05:48:08;;;;;;;16.80;5.20;;;-4.60;97.00;;;;;;5103588;28;20663;-83
2023/03/01 05:50:38;;;;;;;11.43;5.22;;;-4.60;97.00;;;;;;5090918;28;20048;-82
2023/03/01 05:53:09;;;;;;;12.15;4.32;;;-4.60;96.90;;;;;;5103630;28;20040;-83
2023/03/01 05:55:37;;;;;;;16.60;4.82;;;-4.60;97.30;;;;;;5090267;28;20051;-83
2023/03/01 05:58:07;;;;;;;14.48;5.90;;;-4.60;97.50;;;;;;5103880;28;20047;-82
2023/03/01 06:00:34;;;;;;;16.92;5.00;;;-4.60;98.10;;;;;;5107149;28;20052;-82
2023/03/01 06:03:02;;;;;;;11.85;4.40;;;-4.60;98.20;;;;;;5089780;28;20143;-84
2023/03/01 06:05:30;;;;;;;10.60;4.93;;;-4.60;97.90;;;;;;5090359;28;20051;-85
2023/03/01 06:07:59;;;;;;;12.82;4.13;;;-4.60;97.80;;;;;;5110212;28;20048;-84
2023/03/01 06:10:26;;;;;;;13.10;4.65;;;-4.60;98.70;;;;;;5091534;28;20055;-75
2023/03/01 06:12:54;;;;;;;23.60;5.13;;;-4.60;98.90;;;;;;5111019;27;20051;-83
2023/03/01 06:15:21;;;;;;;19.48;4.97;;;-4.60;98.90;;;;;;5094433;28;20048;-81
2023/03/01 06:17:48;;;;;;;12.35;4.68;;;-4.50;98.90;;;;;;5092765;28;20151;-77
2023/03/01 06:20:18;;;;;;;13.75;5.20;;;-4.50;99.10;;;;;;5112222;28;20399;-84
2023/03/01 06:22:46;;;;;;;12.38;4.95;;;-4.50;99.00;;;;;;5093843;27;20515;-80
2023/03/01 06:25:24;;;;;;;14.25;4.63;;;-4.40;99.00;;;;;;5091285;28;20048;-78
2023/03/01 06:27:52;;;;;;;16.33;5.70;;;-4.40;98.70;;;;;;5091539;28;20119;-80
2023/03/01 06:30:21;;;;;;;12.13;4.82;;;-4.30;99.30;;;;;;5100051;28;20395;-79
2023/03/01 06:36:23;;;;;;;11.85;5.35;;;-4.20;99.40;;;;;;5090854;28;20072;-79
2023/03/01 06:38:50;;;;;;;14.80;4.57;;;-4.10;99.00;;;;;;5091617;28;20052;-79
2023/03/01 06:41:16;;;;;;;11.65;5.15;;;-4.10;98.70;;;;;;5090584;28;20062;-79
2023/03/01 06:43:43;;;;;;;15.07;5.47;;;-4.00;98.60;;;;;;5089803;28;20127;-80
2023/03/01 06:46:10;;;;;;;12.95;4.47;;;-4.00;98.10;;;;;;5089999;28;20044;-79
2023/03/01 06:48:37;;;;;;;12.23;4.38;;;-3.90;98.00;;;;;;5089320;28;20052;-79
2023/03/01 06:54:52;;;;;;;18.45;5.05;;;-3.80;97.90;;;;;;5085480;28;20048;-80
2023/03/01 06:57:18;;;;;;;15.73;6.15;;;-3.60;98.10;;;;;;5074014;28;20044;-80
2023/03/01 07:02:50;;;;;;;12.93;5.50;;;-3.40;96.90;;;;;;4970678;28;20661;-78
2023/03/01 07:05:17;;;;;;;14.32;5.97;;;-3.30;97.00;;;;;;4972350;28;20286;-77
2023/03/01 07:07:44;;;;;;;18.85;7.00;;;-3.10;96.60;;;;;;4970601;28;20086;-78
2023/03/01 07:10:12;;;;;;;20.20;7.75;;;-2.90;96.60;;;;;;4985615;28;20115;-78
2023/03/01 07:12:39;;;;;;;15.27;7.15;;;-2.70;95.70;;;;;;4990337;28;20482;-78
2023/03/01 07:15:09;;;;;;;24.55;7.55;;;-2.50;95.30;;;;;;4970602;28;20054;-78
2023/03/01 07:17:36;;;;;;;17.35;7.70;;;-2.30;95.10;;;;;;4986687;28;20050;-78
2023/03/01 07:20:03;;;;;;;22.55;8.15;;;-2.10;94.50;;;;;;4971488;28;20065;-78
2023/03/01 07:22:30;;;;;;;20.85;7.07;;;-2.00;94.00;;;;;;4972553;28;20057;-78
2023/03/01 07:24:57;;;;;;;18.92;7.65;;;-1.90;93.80;;;;;;4982737;28;20256;-78
2023/03/01 07:27:23;;;;;;;25.33;8.70;;;-1.80;92.90;;;;;;4982717;28;20069;-78
2023/03/01 07:29:50;;;;;;;22.83;9.07;;;-1.70;92.60;;;;;;4967684;28;20138;-78
2023/03/01 07:32:17;;;;;;;17.73;8.60;;;-1.70;92.80;;;;;;4971137;28;20407;-78
2023/03/01 07:34:44;;;;;;;23.08;8.07;;;-1.60;92.70;;;;;;4985980;28;20130;-78
2023/03/01 07:37:11;;;;;;;21.63;9.18;;;-1.50;92.40;;;;;;4969847;28;20133;-78
2023/03/01 07:39:38;;;;;;;28.58;8.13;;;-1.40;92.30;;;;;;4992863;28;20521;-78
2023/03/01 07:42:05;;;;;;;20.92;8.52;;;-1.20;92.40;;;;;;4970340;28;20636;-78
2023/03/01 07:44:31;;;;;;;25.00;8.45;;;-1.00;91.50;;;;;;4986150;28;20054;-78
2023/03/01 07:46:59;;;;;;;22.65;8.82;;;-0.80;91.80;;;;;;4968861;28;20055;-78
2023/03/01 07:49:29;;;;;;;26.88;8.40;;;-0.50;91.40;;;;;;5002187;28;20054;-78
2023/03/01 07:51:55;;;;;;;20.88;8.48;;;-0.20;88.70;;;;;;4970901;28;20066;-78
2023/03/01 07:54:23;;;;;;;22.95;8.48;;;0.00;87.80;;;;;;4984751;28;20051;-79
2023/03/01 07:56:49;;;;;;;16.20;7.10;;;0.00;87.20;;;;;;4972000;28;20043;-78
2023/03/01 07:59:16;;;;;;;20.33;7.10;;;0.00;86.20;;;;;;4970779;28;20057;-78
2023/03/01 08:01:43;;;;;;;22.40;7.75;;;0.00;87.00;;;;;;4973256;28;20495;-79
2023/03/01 08:04:10;;;;;;;17.30;6.65;;;0.00;87.00;;;;;;4973418;28;20407;-78
2023/03/01 08:06:37;;;;;;;17.15;6.88;;;0.10;87.30;;;;;;4983409;28;20051;-79
2023/03/01 08:09:04;;;;;;;17.90;6.78;;;0.20;87.70;;;;;;4974150;28;20065;-79
2023/03/01 08:11:31;;;;;;;21.17;7.65;;;0.40;87.10;;;;;;4991222;28;20058;-79
2023/03/01 08:13:58;;;;;;;24.60;9.25;;;0.80;85.70;;;;;;4975259;28;20197;-79
2023/03/01 08:16:25;;;;;;;18.70;9.35;;;1.00;83.40;;;;;;4961931;28;20137;-79
2023/03/01 08:18:52;;;;;;;26.50;10.00;;;1.20;82.60;;;;;;4979594;28;20047;-79
2023/03/01 08:21:19;;;;;;;25.80;10.23;;;1.50;82.40;;;;;;4986278;28;20050;-79
2023/03/01 08:23:46;;;;;;;27.17;9.93;;;1.90;82.30;;;;;;4977867;28;20137;-79
2023/03/01 08:26:20;;;;;;;28.75;9.02;;;2.60;79.70;;;;;;4975567;28;20089;-79
2023/03/01 08:32:21;;;;;;;20.15;9.18;;;4.40;75.00;;;;;;5046667;28;20421;-77
2023/03/01 08:34:48;;;;;;;21.98;9.57;;;5.10;68.50;;;;;;5047234;28;20508;-77
2023/03/01 08:37:15;;;;;;;27.02;10.35;;;4.80;69.80;;;;;;5046669;28;20131;-77
2023/03/01 08:39:42;;;;;;;21.58;9.32;;;4.40;69.40;;;;;;5040460;28;20077;-77
2023/03/01 08:42:08;;;;;;;24.33;9.45;;;4.20;69.80;;;;;;5062289;28;20083;-77
2023/03/01 08:44:35;;;;;;;31.23;12.18;;;4.10;70.90;;;;;;5035445;28;20049;-77
2023/03/01 08:47:04;;;;;;;27.52;11.95;;;4.30;71.60;;;;;;5034278;28;20195;-77
2023/03/01 08:49:32;;;;;;;35.53;15.70;;;4.20;71.00;;;;;;5045890;28;20057;-77
2023/03/01 08:51:59;;;;;;;37.78;15.02;;;4.10;71.00;;;;;;5047367;28;20061;-77
2023/03/01 08:57:23;;;;;;;41.25;15.88;;;3.20;74.20;;;;;;5007035;28;20089;-81
2023/03/01 08:59:50;;;;;;;43.67;16.88;;;3.20;75.30;;;;;;5011823;22;20050;-78
2023/03/01 09:02:18;;;;;;;45.42;18.25;;;3.20;75.70;;;;;;5065328;28;20057;-77
2023/03/01 09:04:45;;;;;;;44.13;16.63;;;3.20;76.80;;;;;;5068874;28;20687;-78
2023/03/01 09:07:12;;;;;;;46.00;17.00;;;3.40;76.40;;;;;;5067850;28;20063;-78
2023/03/01 09:09:39;;;;;;;40.67;16.23;;;3.40;76.30;;;;;;5065764;28;20060;-76
2023/03/01 09:12:06;;;;;;;37.10;14.82;;;3.20;77.30;;;;;;5073552;28;20074;-78
2023/03/01 09:14:33;;;;;;;38.28;14.82;;;3.40;77.20;;;;;;5085389;28;20050;-78
2023/03/01 09:17:02;;;;;;;39.42;14.73;;;3.60;77.00;;;;;;5069484;28;20051;-78
2023/03/01 09:19:29;;;;;;;36.65;14.77;;;3.90;76.10;;;;;;5064454;28;20087;-78
2023/03/01 09:21:58;;;;;;;36.78;14.98;;;4.40;75.20;;;;;;5076574;28;20048;-78
2023/03/01 09:24:25;;;;;;;43.15;15.90;;;4.90;74.00;;;;;;5063758;28;20045;-77
2023/03/01 09:26:56;;;;;;;42.15;15.32;;;5.60;73.40;;;;;;5059258;28;20076;-78
2023/03/01 09:29:23;;;;;;;36.30;15.25;;;6.30;71.20;;;;;;5059272;28;20166;-77
2023/03/01 09:31:50;;;;;;;36.67;14.02;;;6.80;69.30;;;;;;5063638;28;20052;-78
2023/03/01 09:34:22;;;;;;;39.10;15.20;;;7.60;67.20;;;;;;5062179;28;20051;-77
2023/03/01 09:36:50;;;;;;;40.35;13.90;;;8.10;65.20;;;;;;5082988;28;20044;-77
2023/03/01 09:39:18;;;;;;;34.35;14.05;;;8.70;63.90;;;;;;5065218;28;20052;-77
2023/03/01 09:42:02;;;;;;;30.25;15.15;;;9.50;61.30;;;;;;5091579;22;20078;-80
2023/03/01 09:44:40;;;;;;;32.80;16.05;;;10.20;59.40;;;;;;5065587;23;20099;-78
2023/03/01 09:51:22;;;;;;;35.13;16.67;;;11.00;57.90;;;;;;5101585;22;20048;-83
2023/03/01 09:53:49;;;;;;;35.00;15.52;;;10.90;59.40;;;;;;5094093;22;20322;-83
2023/03/01 09:59:19;;;;;;;31.52;15.27;;;10.20;59.80;;;;;;5064519;28;20044;-77
2023/03/01 10:01:57;;;;;;;36.30;16.40;;;10.40;59.20;;;;;;5048425;28;20048;-76
2023/03/01 10:04:34;;;;;;;31.65;16.02;;;10.20;60.70;;;;;;5058390;28;20844;-77
2023/03/01 10:07:09;;;;;;;29.30;14.95;;;10.10;62.00;;;;;;5047695;28;20657;-77
2023/03/01 10:09:45;;;;;;;33.65;15.73;;;10.80;61.20;;;;;;5065991;28;20052;-77
2023/03/01 10:12:27;;;;;;;35.25;16.23;;;11.60;60.10;;;;;;5046086;28;20080;-77
2023/03/01 10:17:55;;;;;;;33.60;15.85;;;12.60;54.60;;;;;;5101231;22;20681;-76
2023/03/01 10:20:40;;;;;;;40.53;16.95;;;11.60;57.50;;;;;;5094194;28;20047;-76
2023/03/01 10:23:08;;;;;;;35.10;16.25;;;12.20;57.80;;;;;;5105841;28;20055;-77
2023/03/01 10:29:04;;;;;;;36.35;16.83;;;12.50;54.70;;;;;;5025853;28;20157;-77
2023/03/01 10:34:33;;;;;;;34.20;15.30;;;12.70;57.00;;;;;;5005902;28;20057;-77
2023/03/01 10:37:19;;;;;;;28.83;16.52;;;12.70;56.50;;;;;;5009027;28;20426;-77
2023/03/01 10:40:15;;;;;;;33.53;16.40;;;13.10;56.30;;;;;;4996864;28;20497;-77
2023/03/01 10:42:49;;;;;;;34.13;16.40;;;13.30;53.50;;;;;;4989037;28;20056;-76
2023/03/01 10:45:29;;;;;;;34.15;15.77;;;14.00;53.40;;;;;;5007618;28;20058;-76
2023/03/01 10:48:27;;;;;;;29.10;15.65;;;14.60;52.70;;;;;;5006453;28;20053;-77
2023/03/01 10:51:00;;;;;;;31.58;16.42;;;15.20;51.20;;;;;;4986842;22;20457;-81
2023/03/01 10:53:37;;;;;;;24.80;14.65;;;15.10;52.20;;;;;;5073774;28;20048;-81
2023/03/01 10:56:08;;;;;;;31.10;15.27;;;15.40;51.40;;;;;;5068862;28;20044;-81
2023/03/01 11:02:27;;;;;;;32.17;13.65;;;15.00;50.90;;;;;;5048245;28;20044;-81
2023/03/01 11:05:02;;;;;;;23.70;12.95;;;15.00;51.10;;;;;;5050781;28;20076;-82
2023/03/01 11:07:29;;;;;;;29.55;13.65;;;15.00;51.30;;;;;;5049326;28;20136;-81
2023/03/01 11:09:56;;;;;;;24.25;13.52;;;16.20;49.80;;;;;;5050737;28;20057;-82
2023/03/01 11:12:25;;;;;;;25.35;14.10;;;16.40;49.90;;;;;;5052038;28;20133;-81
2023/03/01 11:14:54;;;;;;;21.90;12.48;;;16.70;48.70;;;;;;5049433;28;20477;-81
2023/03/01 11:17:25;;;;;;;26.75;13.30;;;14.90;51.50;;;;;;5048525;28;20797;-81
2023/03/01 11:20:14;;;;;;;21.98;12.23;;;15.90;50.50;;;;;;5057208;22;20059;-77
2023/03/01 11:22:56;;;;;;;23.60;13.75;;;16.00;50.10;;;;;;5048801;28;20101;-77
2023/03/01 11:25:32;;;;;;;29.30;14.20;;;14.50;52.00;;;;;;5052633;28;20629;-77
2023/03/01 11:28:03;;;;;;;28.30;15.23;;;14.00;53.80;;;;;;5060993;28;20119;-77
2023/03/01 11:30:41;;;;;;;28.75;15.18;;;13.70;54.30;;;;;;5067318;28;20127;-81
2023/03/01 11:33:07;;;;;;;28.15;15.35;;;13.70;55.20;;;;;;5052757;28;20074;-81
2023/03/01 11:35:37;;;;;;;29.75;14.95;;;14.60;54.00;;;;;;5060212;28;20063;-81
2023/03/01 11:41:39;;;;;;;28.40;15.23;;;15.00;54.30;;;;;;5084985;28;20076;-77
2023/03/01 11:44:16;;;;;;;28.38;15.18;;;15.80;52.10;;;;;;5086731;28;20498;-78
2023/03/01 11:46:55;;;;;;;33.80;15.25;;;16.00;51.80;;;;;;5086993;28;20136;-77
2023/03/01 11:49:42;;;;;;;29.83;16.38;;;15.40;51.50;;;;;;5084532;28;20319;-77
2023/03/01 11:52:40;;;;;;;27.85;13.93;;;14.70;52.90;;;;;;5080689;28;20168;-77
2023/03/01 11:55:20;;;;;;;29.33;15.40;;;15.70;51.30;;;;;;5085348;28;20450;-79
2023/03/01 11:58:16;;;;;;;35.20;16.15;;;15.80;51.50;;;;;;5078833;28;20724;-78
2023/03/01 12:01:11;;;;;;;30.67;16.08;;;16.50;50.10;;;;;;5094902;28;20611;-79
2023/03/01 12:03:59;;;;;;;29.15;16.70;;;17.90;48.30;;;;;;5083012;28;20051;-79
2023/03/01 12:06:57;;;;;;;34.60;17.45;;;17.20;49.60;;;;;;5084436;28;20412;-79
2023/03/01 12:09:39;;;;;;;29.83;16.90;;;17.00;50.10;;;;;;5076431;28;20052;-77
2023/03/01 12:12:06;;;;;;;27.45;15.77;;;18.50;47.30;;;;;;5098730;28;20106;-77
2023/03/01 12:14:49;;;;;;;29.10;17.48;;;18.20;47.90;;;;;;5080232;28;20086;-77
2023/03/01 12:17:29;;;;;;;34.38;17.73;;;17.70;48.60;;;;;;5078679;28;20597;-77
2023/03/01 12:20:29;;;;;;;31.50;17.85;;;18.80;47.70;;;;;;5090655;28;20400;-78
2023/03/01 12:26:52;;;;;;;28.85;16.75;;;18.80;46.00;;;;;;5053596;22;20110;-78
2023/03/01 12:29:34;;;;;;;30.27;17.48;;;19.70;46.00;;;;;;5043027;28;20405;-78
2023/03/01 12:32:27;;;;;;;28.42;17.67;;;18.00;49.10;;;;;;5050422;28;20057;-78
2023/03/01 12:35:17;;;;;;;30.92;18.90;;;18.80;48.20;;;;;;5045932;28;20052;-79
2023/03/01 12:37:53;;;;;;;29.77;18.58;;;18.80;47.80;;;;;;5045800;28;20049;-81
2023/03/01 12:40:26;;;;;;;33.00;20.13;;;18.30;48.40;;;;;;5051859;28;20213;-81
2023/03/01 12:43:15;;;;;;;28.15;18.15;;;17.40;50.10;;;;;;5063902;28;20075;-82
2023/03/01 12:45:54;;;;;;;26.23;17.40;;;16.30;52.00;;;;;;5052895;28;20059;-81
2023/03/01 12:48:40;;;;;;;27.63;17.42;;;16.80;52.00;;;;;;5052248;28;20069;-81
2023/03/01 12:51:22;;;;;;;31.30;19.10;;;18.40;48.80;;;;;;5051539;28;20577;-83
2023/03/01 12:53:52;;;;;;;31.80;17.77;;;16.40;51.40;;;;;;5060100;28;20056;-82
2023/03/01 12:56:22;;;;;;;30.92;17.88;;;17.90;51.40;;;;;;5041737;28;20049;-83
2023/03/01 12:59:17;;;;;;;31.52;17.40;;;17.90;50.50;;;;;;5062697;23;20108;-81
2023/03/01 13:01:54;;;;;;;59.03;19.55;;;17.60;50.10;;;;;;5080227;28;20139;-80
2023/03/01 13:04:44;;;;;;;37.65;17.48;;;18.90;47.20;;;;;;5088158;28;20393;-81
2023/03/01 13:07:36;;;;;;;42.55;18.50;;;19.40;47.00;;;;;;5019491;22;20128;-80
2023/03/01 13:10:25;;;;;;;32.90;17.70;;;18.50;47.40;;;;;;5055266;28;20080;-83
2023/03/01 13:12:52;;;;;;;43.92;18.50;;;17.20;50.40;;;;;;5059013;28;20044;-85
2023/03/01 13:15:22;;;;;;;33.42;17.55;;;18.20;48.90;;;;;;5063923;28;20045;-83
2023/03/01 13:18:00;;;;;;;34.67;17.55;;;18.30;48.10;;;;;;5062657;28;20382;-84
2023/03/01 13:20:33;;;;;;;27.55;17.17;;;18.20;48.40;;;;;;5053060;28;20048;-79
2023/03/01 13:23:07;;;;;;;35.88;18.23;;;18.30;48.30;;;;;;5052354;28;20049;-86
2023/03/01 13:25:54;;;;;;;38.37;17.30;;;15.40;52.40;;;;;;5045127;28;20139;-83
2023/03/01 13:28:33;;;;;;;32.50;16.27;;;15.70;53.10;;;;;;5075493;28;20056;-84
2023/03/01 13:31:03;;;;;;;30.23;16.90;;;16.00;51.60;;;;;;5043779;28;20044;-83
2023/03/01 13:33:30;;;;;;;33.40;16.60;;;13.70;56.50;;;;;;5058523;28;20056;-84
2023/03/01 13:35:58;;;;;;;33.22;17.38;;;13.20;58.10;;;;;;5044034;28;20825;-84
2023/03/01 13:38:53;;;;;;;37.80;16.67;;;12.20;60.50;;;;;;5051642;28;20059;-83
2023/03/01 13:41:38;;;;;;;33.85;18.00;;;12.80;60.60;;;;;;5053042;28;20049;-85
2023/03/01 13:44:38;;;;;;;38.83;19.20;;;14.50;56.50;;;;;;5047387;28;20059;-84